createdAt,value
2023-04-02T00:00:47.791Z,20.77
2023-04-02T00:01:48.905Z,20.77
2023-04-02T00:02:48.981Z,20.74
2023-04-02T00:03:48.980Z,20.73
2023-04-02T00:04:49.010Z,20.76
2023-04-02T00:05:49.076Z,20.73
2023-04-02T00:06:49.117Z,20.71
2023-04-02T00:07:48.176Z,20.74
2023-04-02T00:08:49.236Z,20.73
2023-04-02T00:09:48.305Z,20.73
2023-04-02T00:10:49.345Z,20.74
2023-04-02T00:11:49.447Z,20.74
2023-04-02T00:12:49.461Z,20.74
2023-04-02T00:13:49.513Z,20.74
2023-04-02T00:14:49.575Z,20.73
2023-04-02T00:15:49.631Z,20.74
2023-04-02T00:16:48.754Z,20.71
2023-04-02T00:17:49.788Z,20.71
2023-04-02T00:18:49.808Z,20.71
2023-04-02T00:19:49.863Z,20.73
2023-04-02T00:20:48.926Z,20.71
2023-04-02T00:21:50.001Z,20.74
2023-04-02T00:22:50.032Z,20.71
2023-04-02T00:23:50.078Z,20.73
2023-04-02T00:24:50.136Z,20.73
2023-04-02T00:25:49.181Z,20.71
2023-04-02T00:26:50.249Z,20.73
2023-04-02T00:27:50.369Z,20.73
2023-04-02T00:28:50.356Z,20.70
2023-04-02T00:29:50.427Z,20.70
2023-04-02T00:30:50.480Z,20.70
2023-04-02T00:31:50.592Z,20.71
2023-04-02T00:32:49.616Z,20.73
2023-04-02T00:33:49.673Z,20.70
2023-04-02T00:34:50.734Z,20.70
2023-04-02T00:35:50.830Z,20.70
2023-04-02T00:36:50.814Z,20.68
2023-04-02T00:37:50.868Z,20.68
2023-04-02T00:38:50.917Z,20.68
2023-04-02T00:39:50.970Z,20.70
2023-04-02T00:40:51.047Z,20.68
2023-04-02T00:41:51.079Z,20.68
2023-04-02T00:42:51.153Z,20.71
2023-04-02T00:43:50.239Z,20.71
2023-04-02T00:44:51.268Z,20.67
2023-04-02T00:45:51.378Z,20.68
2023-04-02T00:46:51.371Z,20.68
2023-04-02T00:47:51.503Z,20.70
2023-04-02T00:48:51.483Z,20.70
2023-04-02T00:49:51.529Z,20.66
2023-04-02T00:50:51.668Z,20.71
2023-04-02T00:51:50.645Z,20.70
2023-04-02T00:52:50.707Z,20.70
2023-04-02T00:53:51.771Z,20.70
2023-04-02T00:54:51.844Z,20.68
2023-04-02T00:55:50.906Z,20.68
2023-04-02T00:56:51.979Z,20.70
2023-04-02T00:57:52.013Z,20.70
2023-04-02T00:58:52.083Z,20.70
2023-04-02T00:59:52.162Z,20.71
2023-04-02T01:00:52.185Z,20.68
2023-04-02T01:01:52.276Z,20.70
2023-04-02T01:02:52.436Z,20.70
2023-04-02T01:03:51.396Z,20.68
2023-04-02T01:04:52.414Z,20.70
2023-04-02T01:05:52.502Z,20.67
2023-04-02T01:06:52.556Z,20.67
2023-04-02T01:07:52.642Z,20.67
2023-04-02T01:08:52.677Z,20.66
2023-04-02T01:09:52.728Z,20.68
2023-04-02T01:10:52.789Z,20.67
2023-04-02T01:11:52.865Z,20.67
2023-04-02T01:12:51.909Z,20.67
2023-04-02T01:13:52.975Z,20.67
2023-04-02T01:14:53.029Z,20.66
2023-04-02T01:15:52.163Z,20.68
2023-04-02T01:16:53.140Z,20.67
2023-04-02T01:17:52.240Z,20.68
2023-04-02T01:18:53.275Z,20.66
2023-04-02T01:19:52.385Z,20.67
2023-04-02T01:20:53.404Z,20.68
2023-04-02T01:21:53.464Z,20.68
2023-04-02T01:22:53.544Z,20.66
2023-04-02T01:23:53.643Z,20.66
2023-04-02T01:24:52.669Z,20.67
2023-04-02T01:25:52.716Z,20.64
2023-04-02T01:26:52.781Z,20.66
2023-04-02T01:27:53.856Z,20.66
2023-04-02T01:28:53.911Z,20.67
2023-04-02T01:29:53.940Z,20.66
2023-04-02T01:30:54.141Z,20.66
2023-04-02T01:31:53.052Z,20.68
2023-04-02T01:32:54.164Z,20.66
2023-04-02T01:33:54.176Z,20.66
2023-04-02T01:34:53.225Z,20.64
2023-04-02T01:35:54.330Z,20.66
2023-04-02T01:36:54.350Z,20.67
2023-04-02T01:37:54.450Z,20.66
2023-04-02T01:38:54.491Z,20.67
2023-04-02T01:39:54.542Z,20.66
2023-04-02T01:40:54.619Z,20.64
2023-04-02T01:41:54.659Z,20.64
2023-04-02T01:42:53.720Z,20.66
2023-04-02T01:43:54.800Z,20.64
2023-04-02T01:44:54.848Z,20.64
2023-04-02T01:45:54.906Z,20.66
2023-04-02T01:46:55.065Z,20.64
2023-04-02T01:47:55.067Z,20.64
2023-04-02T01:48:54.091Z,20.64
2023-04-02T01:49:55.168Z,20.63
2023-04-02T01:50:54.225Z,20.64
2023-04-02T01:51:54.266Z,20.64
2023-04-02T01:52:55.315Z,20.66
2023-04-02T01:53:55.407Z,20.64
2023-04-02T01:54:55.423Z,20.66
2023-04-02T01:55:55.517Z,20.63
2023-04-02T01:56:55.557Z,20.63
2023-04-02T01:57:55.695Z,20.63
2023-04-02T01:58:55.675Z,20.62
2023-04-02T01:59:55.742Z,20.64
2023-04-02T02:00:54.837Z,20.64
2023-04-02T02:01:55.925Z,20.62
2023-04-02T02:02:56.013Z,20.63
2023-04-02T02:03:56.022Z,20.62
2023-04-02T02:04:56.034Z,20.60
2023-04-02T02:05:55.149Z,20.63
2023-04-02T02:06:56.148Z,20.63
2023-04-02T02:07:56.245Z,20.63
2023-04-02T02:08:56.686Z,20.63
2023-04-02T02:09:55.337Z,20.63
2023-04-02T02:10:56.401Z,20.62
2023-04-02T02:11:56.466Z,20.62
2023-04-02T02:12:56.615Z,20.60
2023-04-02T02:13:55.638Z,20.60
2023-04-02T02:14:55.694Z,20.62
2023-04-02T02:15:56.791Z,20.63
2023-04-02T02:16:56.861Z,20.63
2023-04-02T02:17:56.928Z,20.63
2023-04-02T02:18:56.935Z,20.62
2023-04-02T02:19:56.980Z,20.60
2023-04-02T02:20:57.111Z,20.62
2023-04-02T02:21:57.146Z,20.62
2023-04-02T02:22:56.198Z,20.57
2023-04-02T02:23:56.234Z,20.60
2023-04-02T02:24:57.304Z,20.62
2023-04-02T02:25:57.369Z,20.63
2023-04-02T02:26:57.430Z,20.60
2023-04-02T02:27:56.496Z,20.59
2023-04-02T02:28:57.554Z,20.60
2023-04-02T02:29:56.625Z,20.62
2023-04-02T02:30:57.686Z,20.60
2023-04-02T02:31:57.784Z,20.62
2023-04-02T02:32:57.843Z,20.57
2023-04-02T02:33:56.891Z,20.62
2023-04-02T02:34:57.959Z,20.60
2023-04-02T02:35:58.027Z,20.59
2023-04-02T02:36:57.054Z,20.60
2023-04-02T02:37:57.125Z,20.60
2023-04-02T02:38:57.202Z,20.59
2023-04-02T02:39:58.263Z,20.57
2023-04-02T02:40:57.314Z,20.59
2023-04-02T02:41:58.406Z,20.62
2023-04-02T02:42:58.456Z,20.57
2023-04-02T02:43:57.501Z,20.59
2023-04-02T02:44:57.566Z,20.57
2023-04-02T02:45:58.693Z,20.59
2023-04-02T02:46:57.667Z,20.57
2023-04-02T02:47:58.780Z,20.60
2023-04-02T02:48:58.769Z,20.57
2023-04-02T02:49:59.094Z,20.59
2023-04-02T02:50:57.892Z,20.60
2023-04-02T02:51:58.916Z,20.57
2023-04-02T02:52:58.973Z,20.56
2023-04-02T02:53:58.022Z,20.59
2023-04-02T02:54:58.094Z,20.59
2023-04-02T02:55:59.096Z,20.57
2023-04-02T02:56:59.195Z,20.56
2023-04-02T02:57:59.219Z,20.57
2023-04-02T02:58:59.226Z,20.56
2023-04-02T02:59:59.296Z,20.54
2023-04-02T03:00:58.336Z,20.59
2023-04-02T03:01:59.363Z,20.60
2023-04-02T03:02:59.485Z,20.57
2023-04-02T03:03:59.588Z,20.56
2023-04-02T03:04:59.583Z,20.57
2023-04-02T03:05:59.614Z,20.60
2023-04-02T03:06:59.673Z,20.60
2023-04-02T03:07:58.691Z,20.56
2023-04-02T03:08:59.745Z,20.56
2023-04-02T03:09:59.800Z,20.56
2023-04-02T03:10:59.842Z,20.54
2023-04-02T03:11:59.961Z,20.54
2023-04-02T03:12:59.965Z,20.54
2023-04-02T03:14:00.047Z,20.53
2023-04-02T03:14:59.092Z,20.54
2023-04-02T03:16:00.243Z,20.54
2023-04-02T03:17:00.228Z,20.57
2023-04-02T03:18:00.283Z,20.53
2023-04-02T03:18:59.361Z,20.54
2023-04-02T03:20:00.378Z,20.53
2023-04-02T03:21:00.429Z,20.56
2023-04-02T03:21:59.467Z,20.54
2023-04-02T03:23:00.554Z,20.53
2023-04-02T03:24:00.623Z,20.56
2023-04-02T03:25:00.701Z,20.56
2023-04-02T03:26:00.756Z,20.56
2023-04-02T03:27:00.855Z,20.54
2023-04-02T03:28:00.853Z,20.56
2023-04-02T03:29:00.915Z,20.56
2023-04-02T03:30:00.998Z,20.56
2023-04-02T03:31:01.107Z,20.56
2023-04-02T03:32:00.119Z,20.54
2023-04-02T03:33:00.242Z,20.56
2023-04-02T03:34:01.244Z,20.54
2023-04-02T03:35:01.290Z,20.53
2023-04-02T03:36:01.384Z,20.54
2023-04-02T03:37:01.426Z,20.50
2023-04-02T03:38:01.491Z,20.53
2023-04-02T03:39:00.576Z,20.54
2023-04-02T03:40:01.618Z,20.54
2023-04-02T03:41:00.662Z,20.53
2023-04-02T03:42:01.728Z,20.53
2023-04-02T03:43:01.789Z,20.53
2023-04-02T03:44:01.835Z,20.53
2023-04-02T03:45:01.883Z,20.51
2023-04-02T03:46:01.953Z,20.53
2023-04-02T03:47:02.008Z,20.54
2023-04-02T03:48:02.099Z,20.51
2023-04-02T03:49:02.129Z,20.49
2023-04-02T03:50:02.191Z,20.51
2023-04-02T03:51:02.229Z,20.53
2023-04-02T03:52:02.234Z,20.53
2023-04-02T03:53:02.275Z,20.50
2023-04-02T03:54:02.338Z,20.51
2023-04-02T03:55:02.366Z,20.51
2023-04-02T03:56:02.412Z,20.50
2023-04-02T03:57:02.508Z,20.51
2023-04-02T03:58:02.520Z,20.51
2023-04-02T03:59:02.582Z,20.51
2023-04-02T04:00:02.663Z,20.51
2023-04-02T04:01:01.680Z,20.51
2023-04-02T04:02:02.777Z,20.53
2023-04-02T04:03:01.870Z,20.53
2023-04-02T04:04:02.874Z,20.51
2023-04-02T04:05:02.856Z,20.50
2023-04-02T04:06:01.910Z,20.50
2023-04-02T04:07:02.949Z,20.50
2023-04-02T04:08:02.991Z,20.49
2023-04-02T04:09:02.036Z,20.47
2023-04-02T04:10:03.089Z,20.49
2023-04-02T04:11:02.111Z,20.49
2023-04-02T04:12:02.098Z,20.47
2023-04-02T04:13:03.141Z,20.47
2023-04-02T04:14:03.172Z,20.50
2023-04-02T04:15:03.175Z,20.49
2023-04-02T04:16:03.193Z,20.49
2023-04-02T04:17:02.214Z,20.49
2023-04-02T04:18:03.271Z,20.49
2023-04-02T04:19:03.318Z,20.49
2023-04-02T04:20:03.317Z,20.47
2023-04-02T04:21:03.366Z,20.47
2023-04-02T04:22:03.352Z,20.47
2023-04-02T04:23:02.367Z,20.46
2023-04-02T04:24:03.422Z,20.49
2023-04-02T04:25:02.467Z,20.43
2023-04-02T04:26:03.538Z,20.49
2023-04-02T04:27:03.587Z,20.47
2023-04-02T04:28:02.641Z,20.47
2023-04-02T04:29:03.654Z,20.49
2023-04-02T04:30:02.688Z,20.49
2023-04-02T04:31:03.738Z,20.49
2023-04-02T04:32:03.840Z,20.47
2023-04-02T04:33:03.999Z,20.46
2023-04-02T04:34:03.948Z,20.44
2023-04-02T04:35:02.974Z,20.46
2023-04-02T04:36:04.084Z,20.44
2023-04-02T04:37:04.075Z,20.47
2023-04-02T04:38:04.159Z,20.46
2023-04-02T04:39:04.167Z,20.46
2023-04-02T04:40:03.195Z,20.44
2023-04-02T04:41:04.241Z,20.46
2023-04-02T04:42:04.332Z,20.47
2023-04-02T04:43:04.338Z,20.43
2023-04-02T04:44:04.443Z,20.46
2023-04-02T04:45:04.450Z,20.44
2023-04-02T04:46:04.540Z,20.46
2023-04-02T04:47:04.565Z,20.46
2023-04-02T04:48:04.710Z,20.43
2023-04-02T04:49:04.764Z,20.44
2023-04-02T04:50:03.751Z,20.46
2023-04-02T04:51:04.769Z,20.44
2023-04-02T04:52:04.806Z,20.44
2023-04-02T04:53:04.838Z,20.44
2023-04-02T04:54:04.897Z,20.42
2023-04-02T04:55:04.922Z,20.43
2023-04-02T04:56:18.229Z,20.42
2023-04-02T04:57:04.969Z,20.46
2023-04-02T04:58:04.957Z,20.43
2023-04-02T04:59:04.930Z,20.44
2023-04-02T05:00:04.913Z,20.42
2023-04-02T05:01:04.930Z,20.40
2023-04-02T05:02:04.897Z,20.43
2023-04-02T05:03:05.005Z,20.42
2023-04-02T05:04:05.463Z,20.40
2023-04-02T05:05:04.928Z,20.42
2023-04-02T05:06:03.855Z,20.40
2023-04-02T05:07:04.854Z,20.39
2023-04-02T05:08:05.017Z,20.43
2023-04-02T05:09:04.851Z,20.42
2023-04-02T05:10:04.824Z,20.40
2023-04-02T05:11:03.827Z,20.39
2023-04-02T05:12:04.831Z,20.42
2023-04-02T05:13:03.799Z,20.43
2023-04-02T05:14:04.821Z,20.40
2023-04-02T05:15:04.807Z,20.39
2023-04-02T05:16:04.845Z,20.42
2023-04-02T05:17:03.786Z,20.40
2023-04-02T05:18:04.811Z,20.40
2023-04-02T05:19:04.844Z,20.37
2023-04-02T05:20:04.788Z,20.39
2023-04-02T05:21:03.743Z,20.39
2023-04-02T05:22:04.734Z,20.42
2023-04-02T05:23:04.737Z,20.42
2023-04-02T05:24:04.785Z,20.39
2023-04-02T05:25:04.728Z,20.40
2023-04-02T05:26:04.713Z,20.39
2023-04-02T05:27:04.705Z,20.37
2023-04-02T05:28:04.710Z,20.40
2023-04-02T05:29:04.699Z,20.39
2023-04-02T05:30:03.715Z,20.39
2023-04-02T05:31:04.705Z,20.40
2023-04-02T05:32:04.672Z,20.39
2023-04-02T05:33:04.762Z,20.39
2023-04-02T05:34:04.667Z,20.37
2023-04-02T05:35:04.688Z,20.39
2023-04-02T05:36:04.733Z,20.36
2023-04-02T05:37:06.973Z,20.40
2023-04-02T05:38:03.665Z,20.39
2023-04-02T05:39:04.694Z,20.39
2023-04-02T05:40:03.624Z,20.39
2023-04-02T05:41:03.616Z,20.39
2023-04-02T05:42:03.602Z,20.36
2023-04-02T05:43:04.593Z,20.37
2023-04-02T05:44:03.590Z,20.39
2023-04-02T05:45:03.632Z,20.39
2023-04-02T05:46:04.602Z,20.40
2023-04-02T05:47:04.580Z,20.36
2023-04-02T05:48:03.628Z,20.39
2023-04-02T05:49:04.555Z,20.35
2023-04-02T05:50:03.585Z,20.39
2023-04-02T05:51:03.562Z,20.35
2023-04-02T05:52:04.555Z,20.36
2023-04-02T05:53:04.610Z,20.37
2023-04-02T05:54:03.525Z,20.37
2023-04-02T05:55:04.566Z,20.36
2023-04-02T05:56:04.513Z,20.39
2023-04-02T05:57:04.557Z,20.37
2023-04-02T05:58:29.481Z,20.37
2023-04-02T05:59:04.515Z,20.39
2023-04-02T06:00:03.536Z,20.39
2023-04-02T06:01:04.465Z,20.37
2023-04-02T06:02:04.604Z,20.43
2023-04-02T06:03:04.519Z,20.35
2023-04-02T06:04:04.502Z,20.40
2023-04-02T06:05:04.533Z,20.39
2023-04-02T06:06:04.460Z,20.40
2023-04-02T06:07:04.433Z,20.37
2023-04-02T06:08:04.484Z,20.39
2023-04-02T06:09:04.412Z,20.39
2023-04-02T06:10:04.426Z,20.40
2023-04-02T06:11:04.382Z,20.39
2023-04-02T06:12:04.388Z,20.40
2023-04-02T06:13:04.485Z,20.43
2023-04-02T06:14:04.375Z,20.42
2023-04-02T06:15:04.381Z,20.40
2023-04-02T06:16:04.356Z,20.43
2023-04-02T06:17:04.410Z,20.40
2023-04-02T06:18:04.458Z,20.42
2023-04-02T06:19:04.327Z,20.42
2023-04-02T06:20:04.341Z,20.40
2023-04-02T06:21:04.323Z,20.42
2023-04-02T06:22:03.314Z,20.43
2023-04-02T06:23:03.296Z,20.42
2023-04-02T06:24:04.293Z,20.46
2023-04-02T06:25:04.307Z,20.44
2023-04-02T06:26:04.299Z,20.46
2023-04-02T06:27:04.299Z,20.43
2023-04-02T06:28:04.314Z,20.43
2023-04-02T06:29:04.247Z,20.46
2023-04-02T06:30:04.256Z,20.44
2023-04-02T06:31:04.342Z,20.47
2023-04-02T06:32:04.247Z,20.46
2023-04-02T06:33:04.301Z,20.47
2023-04-02T06:34:04.261Z,20.51
2023-04-02T06:35:03.217Z,20.49
2023-04-02T06:36:03.261Z,20.51
2023-04-02T06:37:04.197Z,20.50
2023-04-02T06:38:04.250Z,20.50
2023-04-02T06:39:04.174Z,20.50
2023-04-02T06:40:03.165Z,20.50
2023-04-02T06:41:04.187Z,20.51
2023-04-02T06:42:04.172Z,20.53
2023-04-02T06:43:04.159Z,20.53
2023-04-02T06:44:03.148Z,20.53
2023-04-02T06:45:04.196Z,20.51
2023-04-02T06:46:04.174Z,20.56
2023-04-02T06:47:04.125Z,20.54
2023-04-02T06:48:04.143Z,20.54
2023-04-02T06:49:04.107Z,20.57
2023-04-02T06:50:03.133Z,20.56
2023-04-02T06:51:03.095Z,20.57
2023-04-02T06:52:03.091Z,20.57
2023-04-02T06:53:04.199Z,20.59
2023-04-02T06:54:04.092Z,20.59
2023-04-02T06:55:04.089Z,20.57
2023-04-02T06:56:04.078Z,20.60
2023-04-02T06:57:03.087Z,20.62
2023-04-02T06:58:04.109Z,20.59
2023-04-02T06:59:04.146Z,20.60
2023-04-02T07:00:03.180Z,20.59
2023-04-02T07:01:04.337Z,20.59
2023-04-02T07:02:04.247Z,20.62
2023-04-02T07:03:04.341Z,20.60
2023-04-02T07:04:03.335Z,20.62
2023-04-02T07:05:04.488Z,20.62
2023-04-02T07:06:03.470Z,20.63
2023-04-02T07:07:04.485Z,20.62
2023-04-02T07:08:04.522Z,20.60
2023-04-02T07:09:03.581Z,20.62
2023-04-02T07:10:04.648Z,20.59
2023-04-02T07:11:04.702Z,20.62
2023-04-02T07:12:04.763Z,20.60
2023-04-02T07:13:04.813Z,20.62
2023-04-02T07:14:03.864Z,20.62
2023-04-02T07:15:04.933Z,20.63
2023-04-02T07:16:05.024Z,20.64
2023-04-02T07:17:05.044Z,20.64
2023-04-02T07:18:05.143Z,20.64
2023-04-02T07:19:05.169Z,20.64
2023-04-02T07:20:04.168Z,20.64
2023-04-02T07:21:05.234Z,20.64
2023-04-02T07:22:05.269Z,20.67
2023-04-02T07:23:04.305Z,20.66
2023-04-02T07:24:05.343Z,20.63
2023-04-02T07:25:05.395Z,20.66
2023-04-02T07:26:05.448Z,20.64
2023-04-02T07:27:05.508Z,20.67
2023-04-02T07:28:05.537Z,20.64
2023-04-02T07:29:05.598Z,20.64
2023-04-02T07:30:05.633Z,20.66
2023-04-02T07:31:04.710Z,20.64
2023-04-02T07:32:05.703Z,20.67
2023-04-02T07:33:05.794Z,20.67
2023-04-02T07:34:06.470Z,20.70
2023-04-02T07:35:05.834Z,20.68
2023-04-02T07:36:05.897Z,20.68
2023-04-02T07:37:05.973Z,20.70
2023-04-02T07:38:05.993Z,20.68
2023-04-02T07:39:06.044Z,20.68
2023-04-02T07:40:05.074Z,20.68
2023-04-02T07:41:06.133Z,20.68
2023-04-02T07:42:06.188Z,20.67
2023-04-02T07:43:06.246Z,20.68
2023-04-02T07:44:05.985Z,20.68
2023-04-02T07:45:06.421Z,20.68
2023-04-02T07:46:06.466Z,20.68
2023-04-02T07:47:06.529Z,20.70
2023-04-02T07:48:06.621Z,20.68
2023-04-02T07:49:05.633Z,20.70
2023-04-02T07:50:06.693Z,20.70
2023-04-02T07:51:06.794Z,20.71
2023-04-02T07:52:05.820Z,20.70
2023-04-02T07:53:06.913Z,20.68
2023-04-02T07:54:06.945Z,20.68
2023-04-02T07:55:07.000Z,20.73
2023-04-02T07:56:07.155Z,20.71
2023-04-02T07:57:07.162Z,20.71
2023-04-02T07:58:07.191Z,20.70
2023-04-02T07:59:07.260Z,20.70
2023-04-02T08:00:07.315Z,20.73
2023-04-02T08:01:07.395Z,20.70
2023-04-02T08:02:07.580Z,20.70
2023-04-02T08:03:06.546Z,20.71
2023-04-02T08:04:06.563Z,20.71
2023-04-02T08:05:06.608Z,20.71
2023-04-02T08:06:06.679Z,20.71
2023-04-02T08:07:06.743Z,20.70
2023-04-02T08:08:07.809Z,20.71
2023-04-02T08:09:06.881Z,20.71
2023-04-02T08:10:07.914Z,20.71
2023-04-02T08:11:07.994Z,20.73
2023-04-02T08:12:08.057Z,20.74
2023-04-02T08:13:08.105Z,20.71
2023-04-02T08:14:07.161Z,20.71
2023-04-02T08:15:08.234Z,20.71
2023-04-02T08:16:08.331Z,20.73
2023-04-02T08:17:08.347Z,20.71
2023-04-02T08:18:07.454Z,20.73
2023-04-02T08:19:08.478Z,20.71
2023-04-02T08:20:08.548Z,20.73
2023-04-02T08:21:08.612Z,20.73
2023-04-02T08:22:07.673Z,20.73
2023-04-02T08:23:08.760Z,20.71
2023-04-02T08:24:08.807Z,20.76
2023-04-02T08:25:08.896Z,20.73
2023-04-02T08:26:08.931Z,20.76
2023-04-02T08:27:09.001Z,20.73
2023-04-02T08:28:09.042Z,20.76
2023-04-02T08:29:09.101Z,20.76
2023-04-02T08:30:09.157Z,20.73
2023-04-02T08:31:09.277Z,20.76
2023-04-02T08:32:08.282Z,20.77
2023-04-02T08:33:09.402Z,20.77
2023-04-02T08:34:09.403Z,20.77
2023-04-02T08:35:08.474Z,20.77
2023-04-02T08:36:09.606Z,20.77
2023-04-02T08:37:08.593Z,20.77
2023-04-02T08:38:09.664Z,20.76
2023-04-02T08:39:09.729Z,20.74
2023-04-02T08:40:09.767Z,20.77
2023-04-02T08:41:09.806Z,20.77
2023-04-02T08:42:09.818Z,20.78
2023-04-02T08:43:09.828Z,20.77
2023-04-02T08:44:09.835Z,20.78
2023-04-02T08:45:23.658Z,20.80
2023-04-02T08:46:09.965Z,20.78
2023-04-02T08:47:09.871Z,20.77
2023-04-02T08:48:09.857Z,20.78
2023-04-02T08:49:08.834Z,20.78
2023-04-02T08:50:08.827Z,20.78
2023-04-02T08:51:09.810Z,20.78
2023-04-02T08:52:08.814Z,20.77
2023-04-02T08:53:09.796Z,20.78
2023-04-02T08:54:09.790Z,20.80
2023-04-02T08:55:09.787Z,20.78
2023-04-02T08:56:08.773Z,20.78
2023-04-02T08:57:09.814Z,20.80
2023-04-02T08:58:09.763Z,20.81
2023-04-02T08:59:09.746Z,20.83
2023-04-02T09:00:09.751Z,20.81
2023-04-02T09:01:09.786Z,20.81
2023-04-02T09:02:09.733Z,20.81
2023-04-02T09:03:09.771Z,20.83
2023-04-02T09:04:09.715Z,20.84
2023-04-02T09:05:09.826Z,20.81
2023-04-02T09:06:09.720Z,20.80
2023-04-02T09:07:09.687Z,20.81
2023-04-02T09:08:09.695Z,20.80
2023-04-02T09:09:09.669Z,20.83
2023-04-02T09:10:09.665Z,20.84
2023-04-02T09:11:08.664Z,20.84
2023-04-02T09:12:09.648Z,20.87
2023-04-02T09:13:08.688Z,20.84
2023-04-02T09:14:08.649Z,20.85
2023-04-02T09:15:09.644Z,20.84
2023-04-02T09:16:09.687Z,20.85
2023-04-02T09:17:09.622Z,20.83
2023-04-02T09:18:08.674Z,20.84
2023-04-02T09:19:09.637Z,20.85
2023-04-02T09:20:09.595Z,20.85
2023-04-02T09:21:08.614Z,20.84
2023-04-02T09:22:08.993Z,20.85
2023-04-02T09:23:09.663Z,20.87
2023-04-02T09:24:09.680Z,20.85
2023-04-02T09:25:08.745Z,20.85
2023-04-02T09:26:09.797Z,20.87
2023-04-02T09:27:09.865Z,20.88
2023-04-02T09:28:09.911Z,20.90
2023-04-02T09:29:10.022Z,20.85
2023-04-02T09:30:10.024Z,20.84
2023-04-02T09:31:09.096Z,20.88
2023-04-02T09:32:09.069Z,20.85
2023-04-02T09:33:10.215Z,20.90
2023-04-02T09:34:10.135Z,20.88
2023-04-02T09:35:18.408Z,20.88
2023-04-02T09:36:10.177Z,20.88
2023-04-02T09:37:10.124Z,20.91
2023-04-02T09:38:09.149Z,20.88
2023-04-02T09:39:10.196Z,20.90
2023-04-02T09:40:09.125Z,20.88
2023-04-02T09:41:09.105Z,20.91
2023-04-02T09:42:09.107Z,20.87
2023-04-02T09:43:10.092Z,20.90
2023-04-02T09:44:10.078Z,20.87
2023-04-02T09:45:10.147Z,20.88
2023-04-02T09:46:09.132Z,20.91
2023-04-02T09:47:09.055Z,20.88
2023-04-02T09:48:09.086Z,20.88
2023-04-02T09:49:10.054Z,20.88
2023-04-02T09:50:09.044Z,20.88
2023-04-02T09:51:10.150Z,20.90
2023-04-02T09:52:09.109Z,20.91
2023-04-02T09:53:10.147Z,20.88
2023-04-02T09:54:09.186Z,20.88
2023-04-02T09:55:10.237Z,20.90
2023-04-02T09:56:09.336Z,20.91
2023-04-02T09:57:10.433Z,20.90
2023-04-02T09:58:10.446Z,20.90
2023-04-02T09:59:10.501Z,20.92
2023-04-02T10:00:21.436Z,20.92
2023-04-02T10:01:10.628Z,20.91
2023-04-02T10:02:09.559Z,20.92
2023-04-02T10:03:10.545Z,20.94
2023-04-02T10:04:10.604Z,20.92
2023-04-02T10:05:10.528Z,20.91
2023-04-02T10:06:10.525Z,20.92
2023-04-02T10:07:09.552Z,20.92
2023-04-02T10:08:10.507Z,20.94
2023-04-02T10:09:10.495Z,20.92
2023-04-02T10:10:10.502Z,20.94
2023-04-02T10:11:10.496Z,20.95
2023-04-02T10:12:10.481Z,20.97
2023-04-02T10:13:10.470Z,20.97
2023-04-02T10:14:09.465Z,20.95
2023-04-02T10:15:09.441Z,20.98
2023-04-02T10:16:10.480Z,20.99
2023-04-02T10:17:10.512Z,20.95
2023-04-02T10:18:10.438Z,20.98
2023-04-02T10:19:10.410Z,20.99
2023-04-02T10:20:10.406Z,20.98
2023-04-02T10:21:10.391Z,20.98
2023-04-02T10:22:10.392Z,20.98
2023-04-02T10:23:10.403Z,20.99
2023-04-02T10:24:10.479Z,20.98
2023-04-02T10:25:10.543Z,20.98
2023-04-02T10:26:09.592Z,21.01
2023-04-02T10:27:09.961Z,20.99
2023-04-02T10:28:09.718Z,20.99
2023-04-02T10:29:10.826Z,20.99
2023-04-02T10:30:09.850Z,21.01
2023-04-02T10:31:10.539Z,21.01
2023-04-02T10:32:10.956Z,21.02
2023-04-02T10:33:11.099Z,20.99
2023-04-02T10:34:10.105Z,21.02
2023-04-02T10:35:10.187Z,20.99
2023-04-02T10:36:10.249Z,21.02
2023-04-02T10:37:11.280Z,21.03
2023-04-02T10:38:11.333Z,21.03
2023-04-02T10:39:10.382Z,21.03
2023-04-02T10:40:11.462Z,21.03
2023-04-02T10:41:10.505Z,21.06
2023-04-02T10:42:11.564Z,21.02
2023-04-02T10:43:11.635Z,21.05
2023-04-02T10:44:19.429Z,21.03
2023-04-02T10:45:11.721Z,21.05
2023-04-02T10:46:11.713Z,21.03
2023-04-02T10:47:11.667Z,21.02
2023-04-02T10:48:11.717Z,21.03
2023-04-02T10:49:11.713Z,21.03
2023-04-02T10:50:11.678Z,21.03
2023-04-02T10:51:11.660Z,21.03
2023-04-02T10:52:11.680Z,21.03
2023-04-02T10:53:11.641Z,21.05
2023-04-02T10:54:10.697Z,21.03
2023-04-02T10:55:11.743Z,21.01
2023-04-02T10:56:11.808Z,21.03
2023-04-02T10:57:10.970Z,21.03
2023-04-02T10:58:11.932Z,21.06
2023-04-02T10:59:12.010Z,21.03
2023-04-02T11:00:12.180Z,21.03
2023-04-02T11:01:12.175Z,21.01
2023-04-02T11:02:11.190Z,21.02
2023-04-02T11:03:12.466Z,21.03
2023-04-02T11:04:14.212Z,21.02
2023-04-02T11:05:11.325Z,21.02
2023-04-02T11:06:12.308Z,21.03
2023-04-02T11:07:14.811Z,21.02
2023-04-02T11:08:11.303Z,21.02
2023-04-02T11:09:12.318Z,21.03
2023-04-02T11:10:12.278Z,21.02
2023-04-02T11:11:12.258Z,21.03
2023-04-02T11:12:12.265Z,21.02
2023-04-02T11:13:12.265Z,21.03
2023-04-02T11:14:12.244Z,21.01
2023-04-02T11:15:12.323Z,21.03
2023-04-02T11:16:12.243Z,21.01
2023-04-02T11:17:12.230Z,21.02
2023-04-02T11:18:12.222Z,21.02
2023-04-02T11:19:12.208Z,21.02
2023-04-02T11:20:12.250Z,21.02
2023-04-02T11:21:12.251Z,21.02
2023-04-02T11:22:12.183Z,21.02
2023-04-02T11:23:11.200Z,21.02
2023-04-02T11:24:12.164Z,21.05
2023-04-02T11:25:11.179Z,21.06
2023-04-02T11:26:11.149Z,21.03
2023-04-02T11:27:12.307Z,21.03
2023-04-02T11:28:12.155Z,21.08
2023-04-02T11:29:12.166Z,21.03
2023-04-02T11:30:12.222Z,21.05
2023-04-02T11:31:12.367Z,21.05
2023-04-02T11:32:12.369Z,21.05
2023-04-02T11:33:12.408Z,21.05
2023-04-02T11:34:12.477Z,21.03
2023-04-02T11:35:12.537Z,21.02
2023-04-02T11:36:12.620Z,21.03
2023-04-02T11:37:11.682Z,21.06
2023-04-02T11:38:12.731Z,21.02
2023-04-02T11:39:17.449Z,21.03
2023-04-02T11:40:12.787Z,21.03
2023-04-02T11:41:12.768Z,21.03
2023-04-02T11:42:11.771Z,21.05
2023-04-02T11:43:12.736Z,21.03
2023-04-02T11:44:12.761Z,21.02
2023-04-02T11:45:12.720Z,21.06
2023-04-02T11:46:12.735Z,21.02
2023-04-02T11:47:12.724Z,21.03
2023-04-02T11:48:12.700Z,21.03
2023-04-02T11:49:12.692Z,21.03
2023-04-02T11:50:12.687Z,21.03
2023-04-02T11:51:12.701Z,21.03
2023-04-02T11:52:12.973Z,21.03
2023-04-02T11:53:12.685Z,21.03
2023-04-02T11:54:12.686Z,21.03
2023-04-02T11:55:12.642Z,21.03
2023-04-02T11:56:11.637Z,21.03
2023-04-02T11:57:12.670Z,21.02
2023-04-02T11:58:12.635Z,21.05
2023-04-02T11:59:11.616Z,21.03
2023-04-02T12:00:12.619Z,21.03
2023-04-02T12:01:11.616Z,21.05
2023-04-02T12:02:11.654Z,21.06
2023-04-02T12:03:11.792Z,21.03
2023-04-02T12:04:12.784Z,21.05
2023-04-02T12:05:12.918Z,21.03
2023-04-02T12:06:11.915Z,21.02
2023-04-02T12:07:12.964Z,21.01
2023-04-02T12:08:13.030Z,20.99
2023-04-02T12:09:13.140Z,20.98
2023-04-02T12:10:12.150Z,20.98
2023-04-02T12:11:13.231Z,20.97
2023-04-02T12:12:13.284Z,20.99
2023-04-02T12:13:13.347Z,20.98
2023-04-02T12:14:13.408Z,20.95
2023-04-02T12:15:12.465Z,20.98
2023-04-02T12:16:13.534Z,20.97
2023-04-02T12:17:12.734Z,20.97
2023-04-02T12:18:13.643Z,20.98
2023-04-02T12:19:12.711Z,20.95
2023-04-02T12:20:13.809Z,20.97
2023-04-02T12:21:13.840Z,20.95
2023-04-02T12:22:13.907Z,20.95
2023-04-02T12:23:13.969Z,20.95
2023-04-02T12:24:13.036Z,21.01
2023-04-02T12:25:14.111Z,20.97
2023-04-02T12:26:13.147Z,20.95
2023-04-02T12:27:13.182Z,20.99
2023-04-02T12:28:14.243Z,20.95
2023-04-02T12:29:14.341Z,20.98
2023-04-02T12:30:14.328Z,20.97
2023-04-02T12:31:14.517Z,21.01
2023-04-02T12:32:13.435Z,20.98
2023-04-02T12:33:14.495Z,20.99
2023-04-02T12:34:14.521Z,20.99
2023-04-02T12:35:14.607Z,20.99
2023-04-02T12:36:14.720Z,20.99
2023-04-02T12:37:14.665Z,20.97
2023-04-02T12:38:14.731Z,20.98
2023-04-02T12:39:14.790Z,20.97
2023-04-02T12:40:14.838Z,20.97
2023-04-02T12:41:13.932Z,20.99
2023-04-02T12:42:13.947Z,21.01
2023-04-02T12:43:13.983Z,20.98
2023-04-02T12:44:15.042Z,20.99
2023-04-02T12:45:15.105Z,20.95
2023-04-02T12:46:15.204Z,20.97
2023-04-02T12:47:15.234Z,20.99
2023-04-02T12:48:14.295Z,20.99
2023-04-02T12:49:15.362Z,20.97
2023-04-02T12:50:15.415Z,20.98
2023-04-02T12:51:17.517Z,20.98
2023-04-02T12:52:14.495Z,20.98
2023-04-02T12:53:15.475Z,20.98